Blue Springs, Alabama
Current Conditions -  °F | °C
As of 12:53 PM on Wednesday 26 Nov 2014 (Local Time) from KHEY Reporting Station
Clear Clear  
Wind Chill: 60°   Ceiling: Unl
Heat Index: 60°   Visibility: 10mi
Dew Point: 29°   Wind: 9mph
Humidity: 31%   Direction: 310°NW
Pressure: 30.16"   Gusts: 20mph
Location:  31.6731°N, 85.5681°W
Report Text: KHEY 261853Z AUTO 31008G17KT 10SM CLR 16/M02 A3016 RMK AO2 SLP200 T01561017
Loading
Personal Weather Stations






























Interactive Weather Map New forecast layout! Learn more

10-Day Weather Forecast

Advertisements
Track Severe Weather on mobile